Alvy, West Virginia
Current Conditions -  °F | °C
As of 5:53 AM on Friday 28 Nov 2014 (Local Time) from KCKB Reporting Station
Light Snow Light Snow  
Wind Chill: 18°   Ceiling: Unl
Heat Index: 26°   Visibility: 9mi
Dew Point: 18°   Wind: 7mph
Humidity: 71%   Direction: 270°W
Pressure: 30.31"   Gusts: NA
Location:  39.5266°N, 80.6428°W
Report Text: KCKB 281053Z AUTO 27006KT 9SM -SN FEW050 M03/M08 A3031 RMK AO2 SLP271 P0000 T10331078 TSNO
Loading
Personal Weather Stations






























Interactive Weather Map New forecast layout! Learn more

10-Day Weather Forecast

Advertisements
Track Severe Weather on mobile